^^
Station Historical Data
Daily Summary for October 29, 2017 Units:  English    Metric   Both
« Previous Day
Next Day »
Daily Weekly Monthly Yearly Custom
  High: Low: Average:
Temperature: 66.2 °F 58.9 °F 61.9 °F
Dew Point: 65.3 °F 57.4 °F 60.8 °F
Humidity: 98% 93% 96%
Wind Speed: 6.0mph 0.0mph 1.5mph
Wind Gust: 21.0mph - -
Wind- - SW
Pressure: 29.92 in 28.88 in -
Precipitation: 4.15 in    
Historical Graphs
 
 
Tabular Data for October 29, 2017
Time Temperature Dew Point Pressure Wind Wind Speed Wind Gust Humidity Rainfall Rate (Hourly) Conditions
00:09 61.4 °F 59.7 °F 29.92 in SSW 1.0 mph 4.0 mph 94% 0.00 in BKN
00:19 61.4 °F 59.7 °F 29.92 in Calm   2.0 mph 94% 0.00 in BKN
00:29 61.5 °F 59.8 °F 29.91 in South 1.0 mph 3.0 mph 94% 0.00 in BKN
00:39 61.4 °F 59.7 °F 29.91 in Calm   3.0 mph 94% 0.00 in BKN
00:49 61.4 °F 59.7 °F 29.91 in Calm   3.0 mph 94% 0.00 in BKN
00:59 61.4 °F 59.7 °F 29.91 in East 1.0 mph 3.0 mph 94% 0.00 in BKN
01:09 61.3 °F 59.6 °F 29.91 in Calm   2.0 mph 94% 0.00 in BKN
01:19 61.3 °F 59.6 °F 29.90 in Calm   5.0 mph 94% 0.00 in BKN
01:29 61.3 °F 59.6 °F 29.90 in Calm   3.0 mph 94% 0.00 in BKN
01:39 61.3 °F 59.6 °F 29.89 in East 1.0 mph 2.0 mph 94% 0.00 in BKN
01:49 61.2 °F 59.5 °F 29.88 in Calm   5.0 mph 94% 0.00 in BKN
01:59 61.1 °F 59.4 °F 29.88 in Calm   3.0 mph 94% 0.00 in BKN
02:09 61.3 °F 59.6 °F 29.88 in Calm   4.0 mph 94% 0.00 in OVC
02:19 61.5 °F 59.8 °F 29.88 in Calm   3.0 mph 94% 0.00 in OVC
02:29 61.7 °F 60.0 °F 29.88 in WSW 1.0 mph 4.0 mph 94% 0.00 in OVC
02:39 61.8 °F 60.1 °F 29.87 in Calm   3.0 mph 94% 0.00 in OVC
02:49 61.9 °F 59.9 °F 29.87 in SE 1.0 mph 5.0 mph 93% 0.00 in OVC
02:59 62.0 °F 60.0 °F 29.87 in WSW 1.0 mph 4.0 mph 93% 0.00 in OVC
03:09 62.1 °F 60.1 °F 29.88 in SW 1.0 mph 5.0 mph 93% 0.00 in BKN
03:19 62.1 °F 60.1 °F 29.88 in SSW 3.0 mph 8.0 mph 93% 0.00 in BKN
03:29 62.0 °F 60.0 °F 29.86 in SW 1.0 mph 5.0 mph 93% 0.01 in RA
03:39 61.8 °F 59.8 °F 29.86 in SSW 1.0 mph 4.0 mph 93% 0.01 in RA
03:49 61.4 °F 59.4 °F 29.86 in Calm   9.0 mph 93% 0.00 in BKN
03:59 61.1 °F 59.1 °F 29.85 in SW 1.0 mph 5.0 mph 93% 0.00 in BKN
04:09 60.9 °F 58.8 °F 29.85 in SSE 2.0 mph 5.0 mph 93% 0.00 in -RA
04:19 60.6 °F 58.6 °F 29.85 in SW 1.0 mph 6.0 mph 93% 0.00 in -RA
04:29 60.3 °F 58.6 °F 29.84 in WSW 1.0 mph 8.0 mph 94% 0.02 in -RA
04:39 59.9 °F 58.2 °F 29.84 in SW 3.0 mph 10.0 mph 94% 0.01 in -RA
04:49 59.5 °F 57.8 °F 29.85 in South 1.0 mph 8.0 mph 94% 0.00 in -RA
04:59 59.1 °F 57.4 °F 29.85 in SSW 3.0 mph 9.0 mph 94% 0.00 in -RA
05:09 58.9 °F 57.5 °F 29.85 in West 2.0 mph 8.0 mph 95% 0.00 in -RA
05:19 59.0 °F 57.6 °F 29.84 in NW 1.0 mph 5.0 mph 95% 0.01 in -RA
05:29 59.1 °F 57.7 °F 29.84 in South 1.0 mph 9.0 mph 95% 0.00 in -RA
05:39 59.2 °F 58.1 °F 29.83 in NNW 1.0 mph 8.0 mph 96% 0.00 in -RA
05:49 59.2 °F 58.1 °F 29.83 in NNE 1.0 mph 8.0 mph 96% 0.01 in -RA
05:59 59.1 °F 58.0 °F 29.81 in NNE 2.0 mph 6.0 mph 96% 0.02 in -RA
06:09 59.2 °F 58.1 °F 29.81 in NW 1.0 mph 4.0 mph 96% 0.02 in RA
06:19 59.2 °F 58.1 °F 29.81 in Calm   5.0 mph 96% 0.01 in RA
06:29 59.3 °F 58.1 °F 29.81 in NNW 1.0 mph 3.0 mph 96% 0.00 in OVC
06:39 59.3 °F 58.2 °F 29.81 in NNW 1.0 mph 5.0 mph 96% 0.00 in OVC
06:49 59.4 °F 58.3 °F 29.80 in NW 1.0 mph 5.0 mph 96% 0.01 in RA
06:59 59.6 °F 58.5 °F 29.80 in Calm   5.0 mph 96% 0.00 in OVC
07:09 59.7 °F 58.6 °F 29.79 in NNW 2.0 mph 5.0 mph 96% 0.01 in -RA
07:19 59.9 °F 59.1 °F 29.80 in NNW 1.0 mph 5.0 mph 97% 0.00 in -RA
07:29 60.1 °F 59.2 °F 29.80 in NNW 2.0 mph 4.0 mph 97% 0.01 in -RA
07:39 60.4 °F 59.6 °F 29.79 in SE 1.0 mph 7.0 mph 97% 0.01 in -RA
07:49 60.6 °F 59.7 °F 29.79 in Calm   7.0 mph 97% 0.00 in -RA
07:59 60.7 °F 59.8 °F 29.80 in SSW 1.0 mph 6.0 mph 97% 0.00 in -RA
08:09 60.8 °F 59.9 °F 29.79 in ESE 1.0 mph 5.0 mph 97% 0.00 in -RA
08:19 60.8 °F 59.9 °F 29.79 in ENE 2.0 mph 5.0 mph 97% 0.00 in -RA
08:29 60.8 °F 59.7 °F 29.79 in Calm   8.0 mph 96% 0.00 in -RA
08:39 60.8 °F 59.6 °F 29.80 in SSW 1.0 mph 7.0 mph 96% 0.00 in -RA
08:49 60.7 °F 59.6 °F 29.80 in NW 2.0 mph 5.0 mph 96% 0.00 in -RA
08:59 60.6 °F 59.5 °F 29.80 in Calm   4.0 mph 96% 0.01 in -RA
09:09 60.6 °F 59.5 °F 29.81 in Calm   3.0 mph 96% 0.02 in -RA
09:19 60.5 °F 59.4 °F 29.78 in North 1.0 mph 3.0 mph 96% 0.03 in -RA
09:29 60.5 °F 59.4 °F 29.80 in Calm   4.0 mph 96% 0.01 in -RA
09:49 60.6 °F 59.5 °F 29.77 in NW 1.0 mph 3.0 mph 96% 0.03 in -RA
10:00 60.6 °F 59.5 °F 29.77 in Calm   5.0 mph 96% 0.00 in -RA
10:10 60.7 °F 59.8 °F 29.76 in Calm   2.0 mph 97% 0.00 in RA
10:19 60.8 °F 59.9 °F 29.76 in NW 1.0 mph 2.0 mph 97% 0.00 in
10:39 61.0 °F 60.1 °F 29.75 in NE 1.0 mph 5.0 mph 97% 0.00 in
10:50 61.1 °F 60.2 °F 29.74 in Calm   4.0 mph 97% 0.00 in OVC
11:00 61.3 °F 60.4 °F 29.74 in Calm   4.0 mph 97% 0.00 in OVC
11:10 61.2 °F 60.1 °F 29.73 in WNW 1.0 mph 4.0 mph 96% 0.00 in -RA
11:20 61.1 °F 60.0 °F 29.74 in Calm   3.0 mph 96% 0.01 in -RA
11:30 61.1 °F 60.0 °F 29.73 in WSW 1.0 mph 4.0 mph 96% 0.00 in -RA
11:40 61.0 °F 59.9 °F 29.72 in Calm   5.0 mph 96% 0.02 in -RA
11:49 60.9 °F 59.8 °F 29.72 in WNW 1.0 mph 2.0 mph 96% 0.02 in RA
12:00 61.0 °F 59.8 °F 29.71 in Calm   2.0 mph 96% 0.00 in -RA
12:10 61.0 °F 59.9 °F 29.70 in Calm   3.0 mph 96% 0.01 in -RA
12:20 61.1 °F 60.0 °F 29.69 in NNW 1.0 mph 2.0 mph 96% 0.01 in -RA
12:30 61.1 °F 60.0 °F 29.68 in Calm   3.0 mph 96% 0.00 in -RA
12:40 61.1 °F 60.0 °F 29.67 in Calm   3.0 mph 96% 0.01 in -RA
12:50 61.3 °F 60.4 °F 29.66 in Calm   5.0 mph 97% 0.02 in -RA
13:00 61.5 °F 60.6 °F 29.65 in NNW 1.0 mph 3.0 mph 97% 0.01 in -RA
13:10 61.5 °F 60.6 °F 29.64 in Calm   2.0 mph 97% 0.04 in RA
13:20 61.6 °F 60.7 °F 29.64 in Calm   4.0 mph 97% 0.03 in RA
13:30 61.5 °F 60.6 °F 29.63 in Calm   2.0 mph 97% 0.10 in RA
13:40 61.5 °F 60.6 °F 29.62 in East 2.0 mph 5.0 mph 97% 0.11 in RA
13:50 61.4 °F 60.6 °F 29.60 in WNW 1.0 mph 6.0 mph 97% 0.18 in RA
14:00 61.5 °F 60.6 °F 29.60 in Calm   6.0 mph 97% 0.05 in RA
14:10 61.7 °F 60.8 °F 29.58 in WNW 2.0 mph 7.0 mph 97% 0.06 in RA
14:20 61.8 °F 60.9 °F 29.58 in WNW 1.0 mph 3.0 mph 97% 0.01 in RA
14:30 62.1 °F 61.2 °F 29.57 in WNW 1.0 mph 7.0 mph 97% 0.04 in RA
14:39 62.6 °F 61.7 °F 29.57 in NE 3.0 mph 12.0 mph 97% 0.02 in RA
14:59 63.1 °F 62.2 °F 29.55 in SSW 3.0 mph 12.0 mph 97% 0.08 in RA
15:19 63.1 °F 62.2 °F 29.53 in ESE 3.0 mph 9.0 mph 97% 0.07 in RA
15:30 63.1 °F 62.2 °F 29.53 in NNW 2.0 mph 12.0 mph 97% 0.03 in RA
15:40 63.3 °F 62.4 °F 29.53 in WSW 1.0 mph 14.0 mph 97% 0.14 in RA
15:50 63.4 °F 62.5 °F 29.52 in South 3.0 mph 13.0 mph 97% 0.14 in RA
16:00 63.4 °F 62.5 °F 29.51 in SSW 2.0 mph 7.0 mph 97% 0.14 in RA
16:10 63.4 °F 62.5 °F 29.51 in West 1.0 mph 12.0 mph 97% 0.06 in RA
16:20 63.4 °F 62.5 °F 29.50 in SE 2.0 mph 13.0 mph 97% 0.14 in RA
16:30 63.6 °F 62.7 °F 29.50 in SSE 5.0 mph 13.0 mph 97% 0.05 in RA
16:40 63.7 °F 62.8 °F 29.50 in WSW 3.0 mph 14.0 mph 97% 0.04 in RA
16:50 63.7 °F 62.5 °F 29.49 in WNW 3.0 mph 15.0 mph 96% 0.03 in RA
17:00 63.7 °F 62.6 °F 29.49 in SSE 2.0 mph 14.0 mph 96% 0.03 in RA
17:10 63.8 °F 62.6 °F 29.48 in NW 3.0 mph 9.0 mph 96% 0.02 in RA
17:20 63.7 °F 62.5 °F 29.48 in WSW 3.0 mph 10.0 mph 96% 0.12 in RA
17:30 63.6 °F 62.4 °F 29.47 in SSW 3.0 mph 8.0 mph 96% 0.12 in RA
17:40 63.5 °F 62.6 °F 29.47 in SW 2.0 mph 8.0 mph 97% 0.06 in RA
17:50 63.5 °F 62.6 °F 29.46 in SSW 2.0 mph 8.0 mph 97% 0.06 in RA
18:00 63.6 °F 62.7 °F 29.45 in WSW 2.0 mph 8.0 mph 97% 0.03 in RA
18:10 63.7 °F 62.8 °F 29.44 in SSW 1.0 mph 10.0 mph 97% 0.04 in RA
18:20 63.7 °F 62.9 °F 29.43 in SSW 3.0 mph 10.0 mph 97% 0.05 in RA
18:30 63.8 °F 62.9 °F 29.42 in WNW 2.0 mph 10.0 mph 97% 0.03 in RA
18:40 63.9 °F 63.0 °F 29.42 in West 2.0 mph 9.0 mph 97% 0.02 in RA
18:50 63.9 °F 63.0 °F 29.41 in NNE 2.0 mph 15.0 mph 97% 0.03 in RA
19:00 63.8 °F 62.9 °F 29.39 in WNW 1.0 mph 7.0 mph 97% 0.02 in RA
19:10 63.8 °F 62.9 °F 29.38 in NW 2.0 mph 8.0 mph 97% 0.05 in -RA
19:20 63.7 °F 62.8 °F 29.37 in NW 3.0 mph 15.0 mph 97% 0.04 in -RA
19:30 63.7 °F 62.8 °F 29.36 in Calm   7.0 mph 97% 0.04 in -RA
19:40 63.8 °F 62.9 °F 29.34 in WNW 2.0 mph 9.0 mph 97% 0.08 in -RA
19:50 63.7 °F 62.9 °F 29.33 in NW 1.0 mph 10.0 mph 97% 0.02 in -RA
20:10 63.7 °F 62.8 °F 29.31 in NW 2.0 mph 10.0 mph 97% 0.03 in -RA
20:20 63.7 °F 62.8 °F 29.29 in NW 2.0 mph 8.0 mph 97% 0.04 in -RA
20:30 63.7 °F 62.8 °F 29.27 in NW 6.0 mph 17.0 mph 97% 0.06 in -RA
20:40 63.5 °F 62.6 °F 29.24 in NNW 2.0 mph 13.0 mph 97% 0.10 in -RA
20:50 63.3 °F 62.4 °F 29.22 in NW 3.0 mph 10.0 mph 97% 0.09 in -RA
21:00 63.1 °F 62.2 °F 29.20 in NNW 3.0 mph 12.0 mph 97% 0.12 in -RA
21:10 62.9 °F 62.0 °F 29.16 in ENE 2.0 mph 14.0 mph 97% 0.07 in +RA
21:20 62.8 °F 61.9 °F 29.14 in ESE 3.0 mph 9.0 mph 97% 0.10 in +RA
21:30 62.8 °F 61.9 °F 29.11 in SW 2.0 mph 10.0 mph 97% 0.07 in +RA
21:40 62.6 °F 61.7 °F 29.10 in ESE 2.0 mph 16.0 mph 97% 0.07 in +RA
21:50 62.3 °F 61.5 °F 29.07 in North 5.0 mph 14.0 mph 97% 0.04 in +RA
22:00 62.3 °F 61.5 °F 29.04 in ESE 5.0 mph 14.0 mph 97% 0.06 in +RA
22:10 62.5 °F 61.6 °F 29.02 in South 2.0 mph 13.0 mph 97% 0.09 in +RA
22:20 62.8 °F 61.9 °F 29.00 in WNW 3.0 mph 10.0 mph 97% 0.10 in +RA
22:30 63.4 °F 62.5 °F 28.98 in NNW 2.0 mph 12.0 mph 97% 0.05 in +RA
22:40 64.7 °F 64.1 °F 28.96 in ENE 3.0 mph 15.0 mph 98% 0.03 in +RA
22:50 65.8 °F 65.2 °F 28.94 in ESE 5.0 mph 21.0 mph 98% 0.01 in +RA
23:00 66.2 °F 65.3 °F 28.94 in North 6.0 mph 20.0 mph 97% 0.00 in +RA
23:10 66.0 °F 65.1 °F 28.92 in South 2.0 mph 20.0 mph 97% 0.01 in RA
23:20 65.8 °F 64.9 °F 28.91 in SE 5.0 mph 16.0 mph 97% 0.01 in RA
23:30 65.5 °F 64.6 °F 28.90 in SSW 6.0 mph 16.0 mph 97% 0.01 in RA
23:40 65.0 °F 64.1 °F 28.89 in SSE 3.0 mph 16.0 mph 97% 0.01 in RA
23:50 64.7 °F 63.8 °F 28.88 in SSW 6.0 mph 15.0 mph 97% 0.01 in RA
TarryTown NY Weather
Compliments of Weather Underground - 1.75 mb